createdAt,value
2023-04-04T00:01:19.649Z,2.27
2023-04-04T00:03:52.135Z,1.67
2023-04-04T00:06:20.335Z,2.30
2023-04-04T00:08:50.750Z,2.50
2023-04-04T00:11:18.820Z,2.60
2023-04-04T00:13:47.323Z,1.93
2023-04-04T00:16:15.473Z,2.50
2023-04-04T00:18:43.636Z,2.00
2023-04-04T00:21:13.541Z,2.70
2023-04-04T00:23:41.555Z,3.03
2023-04-04T00:26:09.633Z,2.53
2023-04-04T00:28:39.158Z,2.77
2023-04-04T00:31:07.451Z,3.30
2023-04-04T00:33:35.537Z,2.93
2023-04-04T00:36:03.803Z,2.37
2023-04-04T00:38:33.158Z,2.60
2023-04-04T00:41:02.089Z,2.47
2023-04-04T00:43:31.232Z,2.40
2023-04-04T00:45:59.336Z,3.73
2023-04-04T00:48:28.178Z,3.07
2023-04-04T00:50:56.844Z,2.70
2023-04-04T00:53:26.483Z,3.93
2023-04-04T00:55:55.925Z,2.97
2023-04-04T00:58:26.456Z,3.30
2023-04-04T01:00:55.795Z,3.00
2023-04-04T01:03:24.445Z,3.00
2023-04-04T01:05:52.980Z,3.20
2023-04-04T01:08:26.420Z,3.40
2023-04-04T01:10:57.586Z,3.63
2023-04-04T01:13:27.876Z,3.40
2023-04-04T01:15:58.776Z,3.97
2023-04-04T01:18:29.015Z,3.23
2023-04-04T01:21:10.493Z,3.10
2023-04-04T01:23:50.789Z,2.80
2023-04-04T01:26:24.240Z,2.97
2023-04-04T01:28:54.168Z,2.90
2023-04-04T01:31:32.616Z,3.30
2023-04-04T01:34:05.847Z,3.00
2023-04-04T01:36:40.985Z,2.83
2023-04-04T01:39:17.071Z,3.50
2023-04-04T01:41:49.841Z,3.20
2023-04-04T01:44:20.885Z,3.03
2023-04-04T01:46:53.619Z,3.30
2023-04-04T01:49:22.288Z,3.47
2023-04-04T01:51:51.563Z,2.90
2023-04-04T01:54:20.224Z,3.80
2023-04-04T01:56:49.763Z,3.30
2023-04-04T01:59:17.863Z,3.30
2023-04-04T02:01:48.997Z,3.50
2023-04-04T02:04:17.553Z,3.60
2023-04-04T02:06:45.952Z,3.20
2023-04-04T02:09:14.777Z,2.83
2023-04-04T02:11:42.954Z,2.97
2023-04-04T02:14:13.178Z,3.27
2023-04-04T02:16:41.779Z,3.50
2023-04-04T02:19:10.481Z,3.30
2023-04-04T02:21:39.365Z,2.77
2023-04-04T02:24:08.160Z,3.37
2023-04-04T02:26:37.052Z,3.40
2023-04-04T02:29:07.570Z,3.10
2023-04-04T02:31:39.803Z,3.60
2023-04-04T02:34:09.969Z,3.00
2023-04-04T02:36:38.793Z,2.90
2023-04-04T02:39:07.019Z,3.20
2023-04-04T02:41:36.050Z,2.90
2023-04-04T02:44:04.070Z,3.03
2023-04-04T02:46:33.385Z,2.77
2023-04-04T02:49:07.152Z,3.57
2023-04-04T02:51:36.706Z,2.63
2023-04-04T02:54:05.815Z,3.00
2023-04-04T02:56:40.307Z,2.67
2023-04-04T02:59:09.272Z,3.30
2023-04-04T03:01:39.910Z,2.70
2023-04-04T03:04:11.874Z,2.60
2023-04-04T03:06:43.458Z,2.93
2023-04-04T03:09:11.849Z,2.63
2023-04-04T03:11:40.830Z,2.97
2023-04-04T03:14:10.628Z,3.30
2023-04-04T03:16:40.935Z,3.17
2023-04-04T03:19:12.662Z,2.97
2023-04-04T03:21:41.770Z,2.83
2023-04-04T03:24:10.831Z,3.33
2023-04-04T03:26:38.874Z,2.80
2023-04-04T03:29:08.173Z,2.90
2023-04-04T03:31:37.850Z,2.87
2023-04-04T03:34:06.307Z,3.30
2023-04-04T03:36:36.312Z,2.40
2023-04-04T03:39:04.383Z,3.30
2023-04-04T03:41:33.357Z,2.93
2023-04-04T03:44:01.357Z,2.87
2023-04-04T03:46:29.900Z,2.63
2023-04-04T03:49:00.366Z,3.30
2023-04-04T03:51:29.326Z,2.63
2023-04-04T03:53:58.998Z,4.50
2023-04-04T03:56:28.852Z,3.97
2023-04-04T03:58:57.510Z,3.40
2023-04-04T04:01:26.492Z,3.40
2023-04-04T04:03:54.683Z,3.20
2023-04-04T04:06:24.831Z,3.50
2023-04-04T04:08:53.698Z,4.70
2023-04-04T04:11:23.664Z,3.30
2023-04-04T04:13:52.127Z,4.20
2023-04-04T04:16:22.259Z,3.63
2023-04-04T04:18:51.893Z,3.40
2023-04-04T04:21:32.726Z,3.33
2023-04-04T04:24:01.854Z,3.70
2023-04-04T04:26:32.463Z,3.13
2023-04-04T04:29:00.642Z,2.70
2023-04-04T04:31:32.890Z,3.47
2023-04-04T04:34:03.233Z,3.50
2023-04-04T04:36:33.597Z,3.50
2023-04-04T04:39:14.248Z,2.90
2023-04-04T04:41:58.864Z,4.20
2023-04-04T04:44:27.543Z,4.10
2023-04-04T04:46:57.762Z,3.07
2023-04-04T04:49:26.669Z,3.37
2023-04-04T04:51:56.992Z,3.60
2023-04-04T04:54:25.059Z,2.77
2023-04-04T04:56:57.627Z,3.87
2023-04-04T04:59:27.118Z,3.80
2023-04-04T05:01:56.690Z,3.30
2023-04-04T05:04:27.136Z,3.80
2023-04-04T05:07:02.970Z,3.63
2023-04-04T05:09:31.090Z,3.67
2023-04-04T05:12:00.709Z,3.93
2023-04-04T05:14:39.904Z,4.23
2023-04-04T05:17:10.000Z,3.70
2023-04-04T05:19:43.645Z,3.87
2023-04-04T05:22:16.039Z,3.63
2023-04-04T05:24:49.307Z,3.40
2023-04-04T05:27:26.132Z,3.03
2023-04-04T05:29:59.116Z,3.70
2023-04-04T05:32:36.616Z,3.80
2023-04-04T05:35:10.773Z,3.53
2023-04-04T05:37:41.535Z,4.07
2023-04-04T05:40:14.259Z,3.80
2023-04-04T05:42:54.645Z,3.93
2023-04-04T05:45:24.707Z,2.73
2023-04-04T05:47:53.424Z,3.83
2023-04-04T05:50:25.909Z,2.90
2023-04-04T05:53:00.956Z,3.30
2023-04-04T05:55:29.442Z,3.70
2023-04-04T05:57:59.761Z,3.47
2023-04-04T06:00:43.611Z,4.00
2023-04-04T06:03:13.062Z,4.00
2023-04-04T06:05:44.681Z,5.47
2023-04-04T06:08:13.585Z,5.50
2023-04-04T06:10:42.023Z,5.07
2023-04-04T06:13:11.932Z,4.87
2023-04-04T06:15:41.482Z,5.60
2023-04-04T06:18:11.049Z,5.23
2023-04-04T06:20:39.747Z,6.43
2023-04-04T06:23:10.345Z,5.70
2023-04-04T06:25:42.082Z,7.27
2023-04-04T06:28:16.157Z,7.10
2023-04-04T06:30:46.472Z,6.93
2023-04-04T06:33:17.104Z,6.60
2023-04-04T06:35:49.327Z,6.90
2023-04-04T06:38:18.270Z,5.50
2023-04-04T06:40:48.412Z,4.73
2023-04-04T06:43:18.910Z,3.73
2023-04-04T06:45:47.758Z,4.40
2023-04-04T06:48:17.349Z,4.30
2023-04-04T06:50:46.561Z,4.67
2023-04-04T06:53:17.846Z,3.63
2023-04-04T06:55:46.061Z,4.07
2023-04-04T06:58:14.694Z,7.47
2023-04-04T07:00:44.144Z,4.80
2023-04-04T07:03:13.172Z,5.00
2023-04-04T07:05:42.053Z,5.10
2023-04-04T07:08:11.816Z,4.20
2023-04-04T07:10:41.147Z,4.80
2023-04-04T07:13:09.647Z,5.97
2023-04-04T07:15:38.885Z,5.67
2023-04-04T07:18:09.432Z,5.13
2023-04-04T07:20:37.600Z,4.77
2023-04-04T07:23:06.357Z,5.97
2023-04-04T07:25:34.345Z,5.00
2023-04-04T07:28:12.449Z,5.47
2023-04-04T07:30:41.827Z,4.80
2023-04-04T07:33:12.447Z,3.90
2023-04-04T07:35:41.067Z,4.30
2023-04-04T07:38:09.401Z,4.57
2023-04-04T07:40:38.417Z,4.13
2023-04-04T07:43:06.720Z,3.77
2023-04-04T07:45:37.806Z,4.50
2023-04-04T07:48:06.222Z,3.53
2023-04-04T07:50:36.791Z,3.70
2023-04-04T07:53:04.848Z,3.77
2023-04-04T07:55:32.938Z,3.83
2023-04-04T07:58:00.933Z,3.77
2023-04-04T08:00:30.164Z,3.10
2023-04-04T08:03:00.897Z,2.90
2023-04-04T08:05:29.216Z,3.60
2023-04-04T08:08:01.746Z,3.60
2023-04-04T08:10:29.800Z,3.20
2023-04-04T08:12:58.126Z,3.50
2023-04-04T08:15:27.824Z,3.33
2023-04-04T08:17:56.435Z,4.70
2023-04-04T08:20:24.937Z,4.20
2023-04-04T08:22:53.020Z,3.13
2023-04-04T08:25:22.845Z,2.20
2023-04-04T08:27:50.804Z,2.70
2023-04-04T08:30:20.685Z,1.90
2023-04-04T08:32:49.581Z,2.10
2023-04-04T08:35:18.340Z,2.13
2023-04-04T08:37:47.464Z,2.10
2023-04-04T08:40:18.916Z,2.33
2023-04-04T08:42:50.151Z,2.10
2023-04-04T08:45:20.735Z,2.00
2023-04-04T08:47:51.315Z,2.20
2023-04-04T08:50:21.862Z,1.90
2023-04-04T08:52:51.128Z,2.10
2023-04-04T08:55:22.051Z,1.57
2023-04-04T08:57:51.723Z,1.70
2023-04-04T09:00:21.489Z,1.97
2023-04-04T09:02:57.679Z,2.20
2023-04-04T09:05:27.882Z,1.93
2023-04-04T09:07:57.266Z,2.00
2023-04-04T09:10:26.080Z,2.37
2023-04-04T09:13:05.158Z,2.03
2023-04-04T09:15:44.010Z,1.60
2023-04-04T09:18:11.993Z,2.20
2023-04-04T09:20:42.897Z,2.53
2023-04-04T09:23:12.676Z,1.50
2023-04-04T09:28:24.744Z,2.17
2023-04-04T09:30:53.842Z,1.57
2023-04-04T09:33:24.962Z,1.70
2023-04-04T09:35:56.373Z,1.57
2023-04-04T09:38:26.836Z,2.00
2023-04-04T09:40:57.220Z,1.90
2023-04-04T09:43:30.574Z,1.67
2023-04-04T09:46:02.027Z,2.40
2023-04-04T09:48:33.251Z,2.30
2023-04-04T09:51:04.960Z,1.70
2023-04-04T09:53:36.583Z,2.50
2023-04-04T09:56:05.104Z,2.00
2023-04-04T09:58:36.161Z,1.53
2023-04-04T10:01:10.457Z,1.77
2023-04-04T10:03:39.544Z,2.00
2023-04-04T10:06:10.522Z,2.07
2023-04-04T10:08:42.043Z,2.00
2023-04-04T10:11:12.233Z,2.60
2023-04-04T10:13:44.361Z,2.10
2023-04-04T10:16:12.866Z,2.10
2023-04-04T10:18:41.442Z,2.33
2023-04-04T10:23:45.261Z,1.83
2023-04-04T10:26:14.172Z,1.97
2023-04-04T10:28:46.093Z,1.80
2023-04-04T10:31:21.293Z,1.30
2023-04-04T10:33:56.610Z,2.33
2023-04-04T10:36:31.051Z,1.60
2023-04-04T10:39:06.111Z,2.00
2023-04-04T10:41:36.991Z,1.37
2023-04-04T10:44:15.984Z,2.10
2023-04-04T10:46:47.433Z,1.73
2023-04-04T10:49:17.321Z,2.20
2023-04-04T10:51:55.696Z,2.73
2023-04-04T10:54:28.134Z,2.27
2023-04-04T10:57:00.490Z,2.20
2023-04-04T10:59:30.566Z,1.93
2023-04-04T11:01:59.917Z,2.03
2023-04-04T11:04:49.665Z,1.83
2023-04-04T11:07:18.775Z,1.77
2023-04-04T11:09:57.533Z,1.93
2023-04-04T11:12:31.854Z,1.93
2023-04-04T11:15:10.791Z,1.57
2023-04-04T11:17:52.419Z,1.53
2023-04-04T11:20:23.596Z,1.73
2023-04-04T11:22:53.384Z,2.13
2023-04-04T11:25:33.683Z,2.50
2023-04-04T11:28:29.902Z,2.20
2023-04-04T11:31:33.615Z,1.60
2023-04-04T11:34:13.515Z,2.00
2023-04-04T11:36:53.582Z,1.87
2023-04-04T11:39:31.248Z,2.07
2023-04-04T11:42:08.033Z,2.20
2023-04-04T11:44:44.547Z,2.10
2023-04-04T11:47:14.125Z,2.07
2023-04-04T11:52:38.229Z,1.93
2023-04-04T11:55:17.531Z,2.50
2023-04-04T11:57:47.882Z,1.57
2023-04-04T12:00:40.083Z,1.80
2023-04-04T12:03:12.242Z,2.10
2023-04-04T12:05:45.805Z,2.07
2023-04-04T12:08:15.675Z,2.10
2023-04-04T12:10:44.330Z,2.30
2023-04-04T12:13:13.526Z,2.20
2023-04-04T12:15:45.206Z,2.00
2023-04-04T12:18:22.633Z,2.00
2023-04-04T12:20:52.876Z,2.20
2023-04-04T12:23:21.347Z,2.10
2023-04-04T12:25:54.954Z,2.23
2023-04-04T12:28:23.874Z,2.17
2023-04-04T12:30:57.113Z,1.67
2023-04-04T12:33:27.265Z,2.00
2023-04-04T12:35:56.936Z,1.80
2023-04-04T12:38:26.886Z,1.97
2023-04-04T12:40:55.386Z,2.33
2023-04-04T12:43:24.448Z,1.50
2023-04-04T12:45:53.253Z,2.00
2023-04-04T12:48:30.024Z,1.80
2023-04-04T12:51:00.607Z,1.90
2023-04-04T12:53:30.930Z,1.97
2023-04-04T12:56:05.458Z,1.93
2023-04-04T12:58:37.620Z,2.20
2023-04-04T13:01:06.968Z,2.30
2023-04-04T13:03:37.904Z,2.13
2023-04-04T13:06:13.389Z,2.10
2023-04-04T13:08:52.323Z,2.30
2023-04-04T13:11:21.646Z,2.80
2023-04-04T13:13:49.682Z,2.73
2023-04-04T13:19:22.606Z,2.67
2023-04-04T13:21:54.586Z,2.40
2023-04-04T13:24:23.614Z,2.10
2023-04-04T13:26:52.429Z,2.37
2023-04-04T13:29:21.978Z,2.30
2023-04-04T13:31:50.392Z,2.13
2023-04-04T13:34:18.525Z,2.00
2023-04-04T13:36:47.962Z,2.07
2023-04-04T13:39:17.366Z,2.10
2023-04-04T13:41:45.465Z,2.53
2023-04-04T13:44:18.157Z,3.07
2023-04-04T13:46:46.353Z,2.87
2023-04-04T13:49:16.410Z,2.03
2023-04-04T13:51:44.633Z,2.40
2023-04-04T13:54:14.089Z,2.07
2023-04-04T13:56:42.547Z,2.10
2023-04-04T13:59:11.413Z,1.90
2023-04-04T14:01:39.790Z,1.97
2023-04-04T14:04:22.882Z,2.43
2023-04-04T14:06:52.128Z,1.90
2023-04-04T14:09:22.877Z,2.30
2023-04-04T14:11:51.065Z,2.60
2023-04-04T14:14:19.683Z,2.33
2023-04-04T14:16:48.194Z,2.30
2023-04-04T14:19:17.106Z,3.00
2023-04-04T14:21:45.649Z,2.50
2023-04-04T14:24:14.585Z,2.60
2023-04-04T14:26:43.902Z,2.53
2023-04-04T14:29:12.325Z,2.27
2023-04-04T14:31:41.033Z,2.43
2023-04-04T14:34:09.208Z,2.70
2023-04-04T14:36:37.228Z,2.60
2023-04-04T14:39:05.897Z,2.50
2023-04-04T14:41:33.892Z,2.50
2023-04-04T14:44:03.915Z,2.77
2023-04-04T14:46:33.874Z,2.10
2023-04-04T14:49:03.512Z,3.10
2023-04-04T14:51:32.600Z,2.40
2023-04-04T14:54:01.515Z,2.67
2023-04-04T14:56:30.711Z,2.90
2023-04-04T14:58:59.949Z,2.60
2023-04-04T15:01:32.487Z,2.50
2023-04-04T15:04:01.192Z,2.77
2023-04-04T15:06:35.883Z,3.20
2023-04-04T15:09:06.131Z,2.93
2023-04-04T15:11:36.286Z,2.13
2023-04-04T15:14:06.737Z,2.67
2023-04-04T15:16:38.335Z,3.20
2023-04-04T15:19:09.625Z,2.33
2023-04-04T15:21:38.712Z,2.50
2023-04-04T15:24:07.057Z,2.70
2023-04-04T15:26:36.468Z,2.50
2023-04-04T15:29:06.446Z,2.90
2023-04-04T15:31:36.275Z,2.77
2023-04-04T15:34:04.491Z,3.40
2023-04-04T15:36:34.075Z,2.53
2023-04-04T15:39:04.238Z,2.57
2023-04-04T15:41:34.557Z,2.93
2023-04-04T15:44:02.964Z,2.53
2023-04-04T15:46:31.817Z,3.23
2023-04-04T15:49:02.620Z,3.37
2023-04-04T15:51:31.553Z,3.23
2023-04-04T15:54:00.063Z,2.90
2023-04-04T15:56:29.284Z,2.93
2023-04-04T15:58:57.368Z,2.67
2023-04-04T16:01:27.805Z,3.23
2023-04-04T16:03:56.761Z,3.10
2023-04-04T16:06:27.095Z,3.40
2023-04-04T16:08:55.667Z,2.67
2023-04-04T16:11:23.992Z,3.37
2023-04-04T16:13:52.037Z,3.10
2023-04-04T16:16:20.777Z,3.37
2023-04-04T16:18:49.318Z,3.50
2023-04-04T16:21:17.596Z,2.97
2023-04-04T16:23:46.914Z,3.10
2023-04-04T16:29:04.625Z,3.13
2023-04-04T16:31:33.356Z,3.00
2023-04-04T16:34:03.773Z,3.70
2023-04-04T16:36:32.278Z,3.47
2023-04-04T16:39:01.661Z,4.23
2023-04-04T16:41:30.176Z,3.10
2023-04-04T16:44:00.169Z,4.03
2023-04-04T16:46:29.273Z,3.10
2023-04-04T16:48:57.660Z,3.90
2023-04-04T16:51:26.884Z,2.90
2023-04-04T16:53:54.983Z,3.93
2023-04-04T16:56:25.166Z,2.90
2023-04-04T16:58:53.290Z,3.10
2023-04-04T17:01:22.760Z,3.50
2023-04-04T17:03:52.365Z,4.03
2023-04-04T17:06:20.370Z,5.77
2023-04-04T17:08:49.804Z,3.60
2023-04-04T17:11:18.500Z,3.63
2023-04-04T17:13:48.295Z,3.60
2023-04-04T17:16:16.568Z,3.63
2023-04-04T17:18:44.598Z,4.80
2023-04-04T17:21:13.157Z,3.50
2023-04-04T17:23:42.052Z,3.20
2023-04-04T17:26:10.510Z,3.60
2023-04-04T17:28:38.656Z,3.57
2023-04-04T17:31:08.614Z,4.10
2023-04-04T17:33:36.721Z,3.47
2023-04-04T17:36:04.948Z,3.60
2023-04-04T17:38:33.443Z,3.57
2023-04-04T17:41:03.970Z,3.10
2023-04-04T17:43:33.215Z,3.60
2023-04-04T17:46:02.634Z,4.13
2023-04-04T17:48:36.510Z,3.17
2023-04-04T17:51:07.029Z,3.40
2023-04-04T17:53:36.515Z,3.27
2023-04-04T17:56:04.852Z,2.53
2023-04-04T17:58:33.143Z,3.10
2023-04-04T18:01:03.318Z,3.50
2023-04-04T18:03:33.173Z,3.00
2023-04-04T18:06:02.839Z,3.00
2023-04-04T18:08:31.924Z,3.13
2023-04-04T18:11:00.010Z,3.57
2023-04-04T18:13:29.756Z,3.13
2023-04-04T18:15:58.067Z,3.20
2023-04-04T18:18:26.328Z,3.40
2023-04-04T18:20:56.928Z,3.40
2023-04-04T18:23:26.544Z,3.07
2023-04-04T18:25:55.030Z,3.60
2023-04-04T18:28:24.350Z,3.10
2023-04-04T18:30:53.424Z,3.33
2023-04-04T18:33:24.658Z,3.37
2023-04-04T18:35:52.762Z,3.07
2023-04-04T18:38:25.410Z,3.30
2023-04-04T18:40:53.471Z,3.17
2023-04-04T18:43:22.076Z,3.47
2023-04-04T18:45:50.120Z,4.03
2023-04-04T18:48:18.800Z,3.80
2023-04-04T18:50:47.152Z,3.03
2023-04-04T18:53:15.828Z,2.83
2023-04-04T18:55:46.174Z,2.90
2023-04-04T18:58:14.226Z,3.30
2023-04-04T19:00:42.670Z,3.87
2023-04-04T19:03:13.250Z,3.97
2023-04-04T19:05:42.210Z,4.73
2023-04-04T19:08:13.073Z,3.67
2023-04-04T19:10:47.593Z,4.03
2023-04-04T19:13:16.016Z,4.73
2023-04-04T19:15:46.876Z,4.13
2023-04-04T19:18:15.890Z,4.07
2023-04-04T19:20:43.922Z,3.70
2023-04-04T19:23:12.252Z,4.30
2023-04-04T19:25:40.983Z,4.07
2023-04-04T19:28:13.035Z,4.80
2023-04-04T19:30:43.932Z,3.50
2023-04-04T19:33:13.675Z,3.70
2023-04-04T19:35:53.704Z,3.30
2023-04-04T19:38:24.789Z,3.30
2023-04-04T19:40:59.722Z,3.10
2023-04-04T19:43:31.077Z,3.83
2023-04-04T19:46:00.729Z,3.47
2023-04-04T19:48:43.592Z,3.30
2023-04-04T19:51:28.908Z,3.37
2023-04-04T19:54:01.040Z,4.30
2023-04-04T19:56:30.001Z,4.03
2023-04-04T19:59:00.986Z,4.10
2023-04-04T20:01:32.554Z,4.40
2023-04-04T20:04:07.660Z,3.90
2023-04-04T20:06:36.995Z,4.40
2023-04-04T20:09:13.302Z,4.20
2023-04-04T20:11:43.400Z,4.27
2023-04-04T20:14:12.814Z,4.70
2023-04-04T20:16:41.414Z,4.40
2023-04-04T20:19:11.500Z,4.07
2023-04-04T20:21:39.836Z,3.87
2023-04-04T20:24:09.036Z,3.50
2023-04-04T20:26:42.699Z,3.93
2023-04-04T20:29:14.808Z,3.60
2023-04-04T20:31:44.928Z,4.60
2023-04-04T20:34:39.518Z,4.30
2023-04-04T20:37:10.695Z,4.50
2023-04-04T20:39:41.725Z,4.30
2023-04-04T20:42:35.106Z,3.67
2023-04-04T20:45:29.917Z,4.03
2023-04-04T20:48:00.364Z,5.20
2023-04-04T20:50:46.699Z,4.63
2023-04-04T20:53:19.737Z,4.67
2023-04-04T20:55:50.762Z,4.50
2023-04-04T20:58:29.873Z,3.50
2023-04-04T21:01:03.526Z,4.77
2023-04-04T21:03:36.014Z,4.40
2023-04-04T21:06:11.144Z,4.47
2023-04-04T21:08:44.152Z,4.00
2023-04-04T21:11:13.169Z,5.13
2023-04-04T21:13:43.050Z,4.40
2023-04-04T21:16:16.635Z,5.20
2023-04-04T21:18:46.137Z,5.30
2023-04-04T21:21:18.534Z,4.47
2023-04-04T21:23:53.450Z,4.93
2023-04-04T21:26:47.359Z,5.67
2023-04-04T21:29:22.249Z,6.83
2023-04-04T21:31:56.507Z,5.40
2023-04-04T21:34:26.507Z,4.93
2023-04-04T21:37:01.706Z,6.07
2023-04-04T21:39:31.604Z,6.50
2023-04-04T21:42:04.625Z,5.53
2023-04-04T21:44:35.457Z,6.10
2023-04-04T21:47:08.426Z,5.03
2023-04-04T21:49:36.499Z,6.23
2023-04-04T21:52:06.062Z,5.43
2023-04-04T21:54:34.542Z,5.70
2023-04-04T21:57:03.462Z,5.30
2023-04-04T21:59:31.545Z,5.40
2023-04-04T22:02:00.571Z,5.30
2023-04-04T22:04:30.048Z,6.10
2023-04-04T22:06:58.313Z,4.87
2023-04-04T22:09:29.586Z,6.47
2023-04-04T22:11:59.327Z,5.03
2023-04-04T22:14:27.627Z,5.20
2023-04-04T22:17:01.564Z,4.90
2023-04-04T22:19:43.204Z,6.00
2023-04-04T22:22:15.805Z,5.53
2023-04-04T22:24:44.732Z,5.40
2023-04-04T22:27:13.691Z,5.93
2023-04-04T22:29:44.174Z,5.87
2023-04-04T22:32:14.531Z,5.60
2023-04-04T22:34:44.845Z,6.00
2023-04-04T22:37:12.853Z,5.70
2023-04-04T22:39:44.457Z,5.90
2023-04-04T22:42:12.911Z,5.93
2023-04-04T22:44:42.519Z,5.50
2023-04-04T22:47:11.887Z,5.17
2023-04-04T22:49:49.481Z,5.30
2023-04-04T22:52:22.560Z,5.90
2023-04-04T22:54:51.510Z,4.87
2023-04-04T22:57:19.712Z,5.13
2023-04-04T22:59:47.837Z,4.87
2023-04-04T23:02:16.840Z,5.40
2023-04-04T23:04:45.140Z,5.27
2023-04-04T23:07:13.874Z,6.23
2023-04-04T23:09:43.321Z,5.27
2023-04-04T23:12:15.242Z,5.30
2023-04-04T23:14:44.858Z,4.80
2023-04-04T23:17:15.496Z,5.60
2023-04-04T23:19:44.018Z,5.50
2023-04-04T23:22:12.370Z,6.50
2023-04-04T23:24:42.004Z,5.73
2023-04-04T23:27:20.540Z,5.90
2023-04-04T23:29:51.223Z,6.20
2023-04-04T23:32:19.292Z,5.17
2023-04-04T23:34:47.764Z,5.80
2023-04-04T23:37:15.840Z,5.20
2023-04-04T23:39:45.594Z,4.80
2023-04-04T23:42:18.561Z,5.33
2023-04-04T23:44:46.798Z,4.97
2023-04-04T23:47:16.106Z,5.00
2023-04-04T23:49:44.201Z,5.60
2023-04-04T23:52:13.197Z,5.13
2023-04-04T23:54:41.264Z,5.53
2023-04-04T23:57:09.301Z,5.20
2023-04-04T23:59:38.710Z,5.00
